地図

経路データ

SID SEASON NUMBER BASIN SUBBASIN NAME ISO_TIME NATURE LAT LON WMO_WIND WMO_PRES WMO_AGENCY TRACK_TYPE DIST2LAND LANDFALL IFLAG USA_AGENCY USA_ATCF_ID USA_LAT USA_LON USA_RECORD USA_STATUS USA_WIND USA_PRES USA_SSHS USA_R34_NE USA_R34_SE USA_R34_SW USA_R34_NW USA_R50_NE USA_R50_SE USA_R50_SW USA_R50_NW USA_R64_NE USA_R64_SE USA_R64_SW USA_R64_NW USA_POCI USA_ROCI USA_RMW USA_EYE TOKYO_LAT TOKYO_LON TOKYO_GRADE TOKYO_WIND TOKYO_PRES TOKYO_R50_DIR TOKYO_R50_LONG TOKYO_R50_SHORT TOKYO_R30_DIR TOKYO_R30_LONG TOKYO_R30_SHORT TOKYO_LAND CMA_LAT CMA_LON CMA_CAT CMA_WIND CMA_PRES HKO_LAT HKO_LON HKO_CAT HKO_WIND HKO_PRES NEWDELHI_LAT NEWDELHI_LON NEWDELHI_GRADE NEWDELHI_WIND NEWDELHI_PRES NEWDELHI_CI NEWDELHI_DP NEWDELHI_POCI REUNION_LAT REUNION_LON REUNION_TYPE REUNION_WIND REUNION_PRES REUNION_TNUM REUNION_CI REUNION_RMW REUNION_R34_NE REUNION_R34_SE REUNION_R34_SW REUNION_R34_NW REUNION_R50_NE REUNION_R50_SE REUNION_R50_SW REUNION_R50_NW REUNION_R64_NE REUNION_R64_SE REUNION_R64_SW REUNION_R64_NW BOM_LAT BOM_LON BOM_TYPE BOM_WIND BOM_PRES BOM_TNUM BOM_CI BOM_RMW BOM_R34_NE BOM_R34_SE BOM_R34_SW BOM_R34_NW BOM_R50_NE BOM_R50_SE BOM_R50_SW BOM_R50_NW BOM_R64_NE BOM_R64_SE BOM_R64_SW BOM_R64_NW BOM_ROCI BOM_POCI BOM_EYE BOM_POS_METHOD BOM_PRES_METHOD NADI_LAT NADI_LON NADI_CAT NADI_WIND NADI_PRES WELLINGTON_LAT WELLINGTON_LON WELLINGTON_WIND WELLINGTON_PRES DS824_LAT DS824_LON DS824_STAGE DS824_WIND DS824_PRES TD9636_LAT TD9636_LON TD9636_STAGE TD9636_WIND TD9636_PRES TD9635_LAT TD9635_LON TD9635_WIND TD9635_PRES TD9635_ROCI NEUMANN_LAT NEUMANN_LON NEUMANN_CLASS NEUMANN_WIND NEUMANN_PRES MLC_LAT MLC_LON MLC_CLASS MLC_WIND MLC_PRES USA_GUST BOM_GUST BOM_GUST_PER REUNION_GUST REUNION_GUST_PER USA_SEAHGT USA_SEARAD_NE USA_SEARAD_SE USA_SEARAD_SW USA_SEARAD_NW STORM_SPEED STORM_DIR
1928085N11089 1928 24 NI BB NOT_NAMED 1928-03-25 00:00:00 TS 10.5000 88.5000 main 804 794 _________O____ -1 10.5000 88.5000 TC 45 2 304
1928085N11089 1928 24 NI BB NOT_NAMED 1928-03-25 03:00:00 TS 10.5667 88.3983 main 799 789 _________PO___ -1 10.6000 88.3475 TC 45 10.5000 88.5000 3 3 304
1928085N11089 1928 24 NI BB NOT_NAMED 1928-03-25 06:00:00 TS 10.6581 88.2625 main 794 774 _________OP___ -1 10.7000 88.2000 TC 45 10.5954 88.3563 3 3 305
1928085N11089 1928 24 NI BB NOT_NAMED 1928-03-25 09:00:00 TS 10.7539 88.1229 main 779 769 _________PP___ -1 10.8000 88.0575 TC 45 10.6925 88.2101 3 3 304
1928085N11089 1928 24 NI BB NOT_NAMED 1928-03-25 12:00:00 TS 10.8467 87.9794 main 769 754 _________OP___ -1 10.9000 87.9000 TC 45 10.7935 88.0588 3 4 301
1928085N11089 1928 24 NI BB NOT_NAMED 1928-03-25 15:00:00 TS 10.9463 87.8000 main 754 739 _________PO___ -1 10.9925 87.7000 TC 45 10.9000 87.9000 3 4 301
1928085N11089 1928 24 NI BB NOT_NAMED 1928-03-25 18:00:00 TS 11.0569 87.6161 main 744 734 _________OP___ -1 11.1000 87.5000 TC 45 11.0137 87.7322 3 4 305
1928085N11089 1928 24 NI BB NOT_NAMED 1928-03-25 21:00:00 TS 11.1887 87.4537 main 738 723 _________PP___ -1 11.2425 87.3500 TC 45 11.1350 87.5574 3 4 311
1928085N11089 1928 24 NI BB NOT_NAMED 1928-03-26 00:00:00 TS 11.3319 87.2895 main 723 709 _________OP___ -1 11.4000 87.2000 TC 45 11.2637 87.3790 3 5 310
1928085N11089 1928 24 NI BB NOT_NAMED 1928-03-26 03:00:00 TS 11.4750 87.1000 main 714 701 _________PO___ -1 11.5500 87.0000 TC 45 11.4000 87.2000 3 5 308
1928085N11089 1928 24 NI BB NOT_NAMED 1928-03-26 06:00:00 TS 11.6193 86.9185 main 701 697 _________OP___ -1 11.7000 86.8000 TC 45 11.5387 87.0371 3 4 311
1928085N11089 1928 24 NI BB NOT_NAMED 1928-03-26 09:00:00 TS 11.7637 86.7649 main 703 691 _________PP___ -1 11.8425 86.6574 TC 45 11.6849 86.8723 3 4 314
1928085N11089 1928 24 NI BB NOT_NAMED 1928-03-26 12:00:00 TS 11.9193 86.5982 main 691 670 _________OP___ -1 12.0000 86.5000 TC 45 11.8386 86.6964 3 5 312
1928085N11089 1928 24 NI BB NOT_NAMED 1928-03-26 15:00:00 TS 12.1000 86.3825 main 670 631 _________PO___ -1 12.2000 86.2650 TC 41 12.0000 86.5000 3 6 309
1928085N11089 1928 24 NI BB NOT_NAMED 1928-03-26 18:00:00 TS 12.2840 86.1297 main 631 609 _________OP___ -1 12.4000 86.0000 TC 37 12.1679 86.2594 3 6 305
1928085N11089 1928 24 NI BB NOT_NAMED 1928-03-26 21:00:00 TS 12.4501 85.8713 main 600 571 _________PP___ -1 12.5575 85.7425 TC 33 12.3426 86.0001 3 6 303
1928085N11089 1928 24 NI BB NOT_NAMED 1928-03-27 00:00:00 TS 12.6105 85.6203 main 571 540 _________OP___ -1 12.7000 85.5000 TC 30 12.5210 85.7407 3 6 305
1928085N11089 1928 24 NI BB NOT_NAMED 1928-03-27 03:00:00 TS 12.7712 85.3925 main 540 518 _________PO___ -1 12.8425 85.2850 TC 30 12.7000 85.5000 1 5 310
1928085N11089 1928 24 NI BB NOT_NAMED 1928-03-27 06:00:00 TS 12.9353 85.2238 main 518 494 _________OP___ -1 13.0000 85.1000 TC 30 12.8705 85.3477 1 4 320
1928085N11089 1928 24 NI BB NOT_NAMED 1928-03-27 09:00:00 TS 13.1133 85.0983 main 494 463 _________PP___ -1 13.1848 84.9873 TC 30 13.0418 85.2093 1 5 322
1928085N11089 1928 24 NI BB NOT_NAMED 1928-03-27 12:00:00 TS 13.3086 84.9207 main 463 425 _________OP___ -1 13.4000 84.8000 TC 30 13.2173 85.0414 1 6 310
1928085N11089 1928 24 NI BB NOT_NAMED 1928-03-27 15:00:00 TS 13.5288 84.5976 main 425 383 _________PO___ -1 13.6576 84.3951 TC 30 13.4000 84.8000 1 8 301
1928085N11089 1928 24 NI BB NOT_NAMED 1928-03-27 18:00:00 TS 13.7240 84.2163 main 383 342 _________OP___ -1 13.9000 83.9000 TC 30 13.5921 84.4535 1 9 295
1928085N11089 1928 24 NI BB NOT_NAMED 1928-03-27 21:00:00 TS 13.9038 83.7851 main 342 302 _________PP___ -1 14.0725 83.4350 TC 30 13.7914 84.0186 1 9 292
1928085N11089 1928 24 NI BB NOT_NAMED 1928-03-28 00:00:00 TS 14.0633 83.3496 main 297 273 _________OP___ -1 14.2000 83.0000 TC 30 13.9950 83.5244 1 8 291
1928085N11089 1928 24 NI BB NOT_NAMED 1928-03-28 03:00:00 NR 14.2000 83.0000 main 273 __________O___ -1 TC 14.2000 83.0000 1 7 292

IBTrACS Databaseについて

本データベースは、米国NOAAが公開する1842年以降の世界の熱帯低気圧のベストトラックデータアーカイブInternational Best Track Archive for Climate Stewardship (IBTrACS)を、ウェブで閲覧しやすい形式に変換したものです。

最終更新日:2021-11-26